Time;durP1;ratioP1;P1;durP2;ratioP2;P2;SDS_P1;SDS_P2;PMS_P1;PMS_P2;Temp;Humidity;BMP_temperature;BMP_pressure;BME280_temperature;BME280_humidity;BME280_pressure;Samples;Min_cycle;Max_cycle;Signal;HPM_P1;HPM_P2
2024/03/30 00:01:39;;;;;;;;;;;8.60;99.90;;;;;;5104721;28;20092;-75
2024/03/30 00:04:04;;;;;;;;;;;8.50;99.90;;;;;;5104353;28;20038;-77
2024/03/30 00:06:30;;;;;;;;;;;8.30;99.90;;;;;;5104091;28;20055;-75
2024/03/30 00:08:55;;;;;;;;;;;8.20;99.90;;;;;;5104764;28;19992;-76
2024/03/30 00:11:21;;;;;;;;;;;8.00;99.90;;;;;;5105919;27;20192;-75
2024/03/30 00:13:46;;;;;;;;;;;8.30;99.90;;;;;;5104238;28;19995;-75
2024/03/30 00:16:12;;;;;;;;;;;8.40;99.90;;;;;;5085904;28;19997;-75
2024/03/30 00:18:38;;;;;;;;;;;8.20;99.90;;;;;;5104197;28;20075;-76
2024/03/30 00:21:04;;;;;;;;;;;8.10;99.90;;;;;;5104328;28;19993;-76
2024/03/30 00:23:30;;;;;;;;;;;8.20;99.90;;;;;;5097117;28;20337;-76
2024/03/30 00:25:56;;;;;;;;;;;8.40;99.90;;;;;;5102398;28;19989;-76
2024/03/30 00:28:21;;;;;;;;;;;8.20;99.90;;;;;;5103505;28;20084;-77
2024/03/30 00:30:47;;;;;;;;;;;8.20;99.90;;;;;;5103843;28;19993;-75
2024/03/30 00:33:13;;;;;;;;;;;8.20;99.90;;;;;;5104291;27;20512;-75
2024/03/30 00:35:39;;;;;;;;;;;8.20;99.90;;;;;;5103780;28;20001;-76
2024/03/30 00:38:06;;;;;;;;;;;8.30;99.90;;;;;;5103105;28;19999;-75
2024/03/30 00:40:32;;;;;;;;;;;8.30;99.90;;;;;;5087056;28;19993;-75
2024/03/30 00:42:57;;;;;;;;;;;8.30;99.90;;;;;;5103454;28;19993;-75
2024/03/30 00:45:23;;;;;;;;;;;8.30;99.90;;;;;;5103805;28;20034;-75
2024/03/30 00:47:49;;;;;;;;;;;8.20;99.90;;;;;;5103229;28;20040;-77
2024/03/30 00:50:14;;;;;;;;;;;8.20;99.90;;;;;;5095408;28;20609;-77
2024/03/30 00:52:40;;;;;;;;;;;8.30;99.90;;;;;;5101792;28;20020;-75
2024/03/30 00:55:05;;;;;;;;;;;8.30;99.90;;;;;;5103447;28;19989;-75
2024/03/30 00:57:31;;;;;;;;;;;8.20;99.90;;;;;;5103057;28;19993;-74
2024/03/30 00:59:56;;;;;;;;;;;8.20;99.90;;;;;;5102862;28;20020;-75
2024/03/30 01:02:22;;;;;;;;;;;8.20;99.90;;;;;;5102412;28;19996;-75
2024/03/30 01:04:48;;;;;;;;;;;8.20;99.90;;;;;;5103276;28;19993;-75
2024/03/30 01:07:13;;;;;;;;;;;8.20;99.90;;;;;;5102594;28;20020;-74
2024/03/30 01:09:39;;;;;;;;;;;8.20;99.90;;;;;;5103165;28;20004;-74
2024/03/30 01:12:04;;;;;;;;;;;8.20;99.90;;;;;;5106273;27;19992;-75
2024/03/30 01:14:33;;;;;;;;;;;8.20;99.90;;;;;;5102882;28;19992;-75
2024/03/30 01:16:59;;;;;;;;;;;8.20;99.90;;;;;;5100312;28;20681;-75
2024/03/30 01:19:25;;;;;;;;;;;8.00;99.90;;;;;;5102228;28;20016;-77
2024/03/30 01:21:50;;;;;;;;;;;7.80;99.90;;;;;;5099665;28;19996;-76
2024/03/30 01:24:17;;;;;;;;;;;7.70;99.90;;;;;;5100833;28;20526;-75
2024/03/30 01:26:50;;;;;;;;;;;7.90;99.90;;;;;;5101829;28;19999;-75
2024/03/30 01:29:17;;;;;;;;;;;7.80;99.90;;;;;;5102943;28;20001;-76
2024/03/30 01:31:43;;;;;;;;;;;7.70;99.90;;;;;;5102280;28;19995;-76
2024/03/30 01:34:08;;;;;;;;;;;7.80;99.90;;;;;;5103263;27;19996;-77
2024/03/30 01:36:34;;;;;;;;;;;7.70;99.90;;;;;;5100874;28;20481;-76
2024/03/30 01:38:59;;;;;;;;;;;7.60;99.90;;;;;;5102657;28;20016;-75
2024/03/30 01:41:25;;;;;;;;;;;7.70;99.90;;;;;;5104927;27;19992;-76
2024/03/30 01:43:50;;;;;;;;;;;7.60;99.90;;;;;;5098073;28;19989;-76
2024/03/30 01:46:16;;;;;;;;;;;7.60;99.90;;;;;;5101565;28;19993;-75
2024/03/30 01:48:42;;;;;;;;;;;7.60;99.90;;;;;;5102332;28;19993;-75
2024/03/30 01:51:08;;;;;;;;;;;7.70;99.90;;;;;;5102173;28;20084;-75
2024/03/30 01:53:34;;;;;;;;;;;7.60;99.90;;;;;;5101768;28;20079;-75
2024/03/30 01:56:00;;;;;;;;;;;7.60;99.90;;;;;;5104122;27;19989;-75
2024/03/30 01:58:27;;;;;;;;;;;7.50;99.90;;;;;;5102287;28;20000;-75
2024/03/30 02:00:54;;;;;;;;;;;7.50;99.90;;;;;;5083321;28;19993;-75
2024/03/30 02:03:21;;;;;;;;;;;7.60;99.90;;;;;;5100849;28;19992;-76
2024/03/30 02:05:47;;;;;;;;;;;7.50;99.90;;;;;;5101503;28;20023;-76
2024/03/30 02:08:13;;;;;;;;;;;7.40;99.90;;;;;;5097883;28;19996;-76
2024/03/30 02:10:40;;;;;;;;;;;7.50;99.90;;;;;;5100719;28;20086;-76
2024/03/30 02:13:06;;;;;;;;;;;7.40;99.90;;;;;;5102148;28;20481;-76
2024/03/30 02:15:32;;;;;;;;;;;7.30;99.90;;;;;;5102289;28;19988;-76
2024/03/30 02:17:57;;;;;;;;;;;7.20;99.90;;;;;;5101958;28;19996;-78
2024/03/30 02:20:23;;;;;;;;;;;7.20;99.90;;;;;;5103224;28;20028;-76
2024/03/30 02:22:52;;;;;;;;;;;7.10;99.90;;;;;;5095254;28;19997;-77
2024/03/30 02:25:21;;;;;;;;;;;7.10;99.90;;;;;;5097887;28;19995;-77
2024/03/30 02:27:47;;;;;;;;;;;7.10;99.90;;;;;;5098066;28;19989;-76
2024/03/30 02:30:20;;;;;;;;;;;7.10;99.90;;;;;;5101497;28;19989;-77
2024/03/30 02:32:46;;;;;;;;;;;7.10;99.90;;;;;;5092181;28;20038;-76
2024/03/30 02:35:11;;;;;;;;;;;7.00;99.90;;;;;;5093335;28;19993;-75
2024/03/30 02:37:37;;;;;;;;;;;7.00;99.90;;;;;;5101303;28;20003;-77
2024/03/30 02:40:07;;;;;;;;;;;7.10;99.90;;;;;;5102408;28;20594;-75
2024/03/30 02:42:33;;;;;;;;;;;7.10;99.90;;;;;;5101037;28;19995;-75
2024/03/30 02:44:59;;;;;;;;;;;7.20;99.90;;;;;;5100321;28;20004;-75
2024/03/30 02:47:24;;;;;;;;;;;7.10;99.90;;;;;;5101653;28;19989;-77
2024/03/30 02:49:50;;;;;;;;;;;7.20;99.90;;;;;;5101548;28;19991;-75
2024/03/30 02:52:15;;;;;;;;;;;6.90;99.90;;;;;;5100546;28;20826;-75
2024/03/30 02:54:41;;;;;;;;;;;7.00;99.90;;;;;;5099531;28;19989;-75
2024/03/30 02:57:06;;;;;;;;;;;7.10;99.90;;;;;;5098942;28;19997;-75
2024/03/30 02:59:32;;;;;;;;;;;7.00;99.90;;;;;;5101685;28;20486;-75
2024/03/30 03:01:58;;;;;;;;;;;6.90;99.90;;;;;;5101657;28;19988;-76
2024/03/30 03:04:23;;;;;;;;;;;7.00;99.90;;;;;;5098418;28;20705;-75
2024/03/30 03:06:49;;;;;;;;;;;6.80;99.90;;;;;;5098228;28;20017;-77
2024/03/30 03:09:14;;;;;;;;;;;6.70;99.90;;;;;;5100959;28;20005;-75
2024/03/30 03:11:41;;;;;;;;;;;6.80;99.90;;;;;;5101328;28;20020;-75
2024/03/30 03:14:06;;;;;;;;;;;7.00;99.90;;;;;;5104920;28;20108;-75
2024/03/30 03:16:33;;;;;;;;;;;7.00;99.90;;;;;;5104715;28;20099;-75
2024/03/30 03:18:59;;;;;;;;;;;6.90;99.90;;;;;;5104342;28;20012;-75
2024/03/30 03:21:24;;;;;;;;;;;6.80;99.90;;;;;;5104302;28;19993;-75
2024/03/30 03:23:50;;;;;;;;;;;6.70;99.90;;;;;;5101449;28;20407;-74
2024/03/30 03:26:16;;;;;;;;;;;6.90;99.90;;;;;;5099235;28;20039;-75
2024/03/30 03:28:42;;;;;;;;;;;6.80;99.90;;;;;;5104697;28;20095;-74
2024/03/30 03:31:07;;;;;;;;;;;7.00;99.90;;;;;;5104414;28;20036;-74
2024/03/30 03:33:33;;;;;;;;;;;7.00;99.90;;;;;;5104814;28;20340;-75
2024/03/30 03:36:00;;;;;;;;;;;7.00;99.90;;;;;;5104554;28;20570;-75
2024/03/30 03:38:25;;;;;;;;;;;7.00;99.90;;;;;;5100165;28;19999;-76
2024/03/30 03:40:53;;;;;;;;;;;7.10;99.90;;;;;;5105365;28;19997;-75
2024/03/30 03:43:19;;;;;;;;;;;7.00;99.90;;;;;;5104052;28;19996;-76
2024/03/30 03:45:45;;;;;;;;;;;7.00;99.90;;;;;;5105004;28;20000;-76
2024/03/30 03:48:11;;;;;;;;;;;7.00;99.90;;;;;;5104591;28;20019;-74
2024/03/30 03:50:37;;;;;;;;;;;7.10;99.90;;;;;;5100719;28;19989;-75
2024/03/30 03:53:03;;;;;;;;;;;7.20;99.90;;;;;;5087812;28;19992;-76
2024/03/30 03:55:28;;;;;;;;;;;7.40;99.90;;;;;;5104393;28;19993;-76
2024/03/30 03:57:54;;;;;;;;;;;7.20;99.90;;;;;;5104570;28;19997;-76
2024/03/30 04:00:19;;;;;;;;;;;7.10;99.90;;;;;;5103828;28;20013;-75
2024/03/30 04:02:45;;;;;;;;;;;7.20;99.90;;;;;;5104400;28;20004;-75
2024/03/30 04:05:11;;;;;;;;;;;7.20;99.90;;;;;;5104221;28;20015;-75
2024/03/30 04:07:36;;;;;;;;;;;7.10;99.90;;;;;;5103532;28;20679;-76
2024/03/30 04:10:02;;;;;;;;;;;7.10;99.90;;;;;;5103812;28;20681;-75
2024/03/30 04:12:28;;;;;;;;;;;7.10;99.90;;;;;;5104473;27;19995;-75
2024/03/30 04:14:54;;;;;;;;;;;7.10;99.90;;;;;;5104302;27;19992;-75
2024/03/30 04:17:19;;;;;;;;;;;7.20;99.90;;;;;;5104035;28;19999;-75
2024/03/30 04:19:45;;;;;;;;;;;7.20;99.90;;;;;;5103976;28;20005;-74
2024/03/30 04:22:11;;;;;;;;;;;7.10;99.90;;;;;;5079574;28;19997;-75
2024/03/30 04:24:36;;;;;;;;;;;7.10;99.90;;;;;;5100843;28;20035;-77
2024/03/30 04:27:02;;;;;;;;;;;7.20;99.90;;;;;;5101314;28;20077;-75
2024/03/30 04:29:28;;;;;;;;;;;7.30;99.90;;;;;;5104136;28;20024;-76
2024/03/30 04:31:53;;;;;;;;;;;7.20;99.90;;;;;;5103927;28;20103;-76
2024/03/30 04:34:19;;;;;;;;;;;7.10;99.90;;;;;;5104049;28;20474;-76
2024/03/30 04:36:44;;;;;;;;;;;7.20;99.90;;;;;;5103433;28;19996;-75
2024/03/30 04:39:10;;;;;;;;;;;7.20;99.90;;;;;;5103714;27;20020;-75
2024/03/30 04:41:35;;;;;;;;;;;6.90;99.90;;;;;;5103388;28;19997;-75
2024/03/30 04:44:03;;;;;;;;;;;6.90;99.90;;;;;;5102444;28;19988;-75
2024/03/30 04:46:29;;;;;;;;;;;7.00;99.90;;;;;;5103004;28;19992;-75
2024/03/30 04:48:54;;;;;;;;;;;6.90;99.90;;;;;;5090079;28;20016;-75
2024/03/30 04:51:20;;;;;;;;;;;7.00;99.90;;;;;;5103282;28;19993;-75
2024/03/30 04:53:45;;;;;;;;;;;7.00;99.90;;;;;;5103529;28;19993;-76
2024/03/30 04:56:11;;;;;;;;;;;7.00;99.90;;;;;;5103270;28;20044;-75
2024/03/30 04:58:37;;;;;;;;;;;6.90;99.90;;;;;;5103303;28;20024;-75
2024/03/30 05:01:09;;;;;;;;;;;7.00;99.90;;;;;;5103041;28;19993;-75
2024/03/30 05:03:35;;;;;;;;;;;6.90;99.90;;;;;;5103612;28;20000;-76
2024/03/30 05:06:04;;;;;;;;;;;6.70;99.90;;;;;;5089911;28;20020;-75
2024/03/30 05:08:29;;;;;;;;;;;6.70;99.90;;;;;;5103274;28;20001;-75
2024/03/30 05:10:55;;;;;;;;;;;6.60;99.90;;;;;;5106601;27;19995;-75
2024/03/30 05:13:21;;;;;;;;;;;6.70;99.90;;;;;;5103338;28;19999;-75
2024/03/30 05:15:46;;;;;;;;;;;6.70;99.90;;;;;;5103333;28;20087;-76
2024/03/30 05:18:13;;;;;;;;;;;6.80;99.90;;;;;;5101957;28;20522;-75
2024/03/30 05:20:49;;;;;;;;;;;6.60;99.90;;;;;;5102839;27;20020;-75
2024/03/30 05:23:30;;;;;;;;;;;6.60;99.90;;;;;;5098320;28;20009;-75
2024/03/30 05:25:56;;;;;;;;;;;6.60;99.90;;;;;;5085969;28;19988;-75
2024/03/30 05:28:22;;;;;;;;;;;6.50;99.90;;;;;;5101950;28;20000;-75
2024/03/30 05:30:49;;;;;;;;;;;6.50;99.90;;;;;;5103221;28;19988;-76
2024/03/30 05:33:14;;;;;;;;;;;6.40;99.90;;;;;;5102580;28;20041;-76
2024/03/30 05:35:40;;;;;;;;;;;6.40;99.90;;;;;;5102010;28;19989;-75
2024/03/30 05:38:06;;;;;;;;;;;6.40;99.90;;;;;;5102112;28;20083;-75
2024/03/30 05:40:32;;;;;;;;;;;6.30;99.90;;;;;;5099547;28;20008;-75
2024/03/30 05:42:58;;;;;;;;;;;6.40;99.90;;;;;;5089179;28;19997;-77
2024/03/30 05:45:23;;;;;;;;;;;6.30;99.90;;;;;;5103380;28;19992;-76
2024/03/30 05:47:49;;;;;;;;;;;6.30;99.90;;;;;;5102246;28;19988;-76
2024/03/30 05:50:15;;;;;;;;;;;6.30;99.90;;;;;;5102490;28;19999;-75
2024/03/30 05:52:40;;;;;;;;;;;6.20;99.90;;;;;;5100620;28;20088;-75
2024/03/30 05:55:06;;;;;;;;;;;6.30;99.90;;;;;;5102438;28;20493;-76
2024/03/30 05:57:32;;;;;;;;;;;6.30;99.90;;;;;;5102296;28;20414;-76
2024/03/30 05:59:57;;;;;;;;;;;6.30;99.90;;;;;;5102055;28;20044;-76
2024/03/30 06:02:24;;;;;;;;;;;6.40;99.90;;;;;;5102994;28;20091;-75
2024/03/30 06:04:50;;;;;;;;;;;6.30;99.90;;;;;;5100170;28;19988;-75
2024/03/30 06:07:15;;;;;;;;;;;6.30;99.90;;;;;;5105383;27;20020;-75
2024/03/30 06:09:41;;;;;;;;;;;6.20;99.90;;;;;;5086156;28;20099;-77
2024/03/30 06:12:06;;;;;;;;;;;6.20;99.90;;;;;;5102962;28;20036;-81
2024/03/30 06:14:33;;;;;;;;;;;6.30;99.90;;;;;;5100614;28;20463;-75
2024/03/30 06:16:59;;;;;;;;;;;6.40;99.90;;;;;;5101708;28;20091;-75
2024/03/30 06:19:24;;;;;;;;;;;6.50;99.90;;;;;;5101859;28;20057;-74
2024/03/30 06:21:50;;;;;;;;;;;6.60;99.90;;;;;;5099266;28;20456;-75
2024/03/30 06:24:15;;;;;;;;;;;6.50;99.90;;;;;;5099359;28;20030;-74
2024/03/30 06:26:41;;;;;;;;;;;6.60;99.90;;;;;;5099405;28;19989;-74
2024/03/30 06:29:07;;;;;;;;;;;6.60;99.90;;;;;;5104461;28;19996;-75
2024/03/30 06:31:33;;;;;;;;;;;6.50;99.90;;;;;;5102317;28;19993;-75
2024/03/30 06:33:59;;;;;;;;;;;6.40;99.90;;;;;;5102251;28;19999;-76
2024/03/30 06:36:24;;;;;;;;;;;6.30;99.90;;;;;;5105026;28;20056;-75
2024/03/30 06:38:50;;;;;;;;;;;6.30;99.90;;;;;;5102922;28;20012;-75
2024/03/30 06:43:59;;;;;;;;;;;6.20;99.90;;;;;;5106248;28;19995;-74
2024/03/30 06:46:25;;;;;;;;;;;6.20;99.90;;;;;;5104236;27;20363;-74
2024/03/30 06:48:50;;;;;;;;;;;6.10;99.90;;;;;;5108727;27;19993;-74
2024/03/30 06:51:16;;;;;;;;;;;6.20;99.90;;;;;;5105016;27;20016;-74
2024/03/30 06:53:41;;;;;;;;;;;6.20;99.90;;;;;;5112249;27;19996;-74
2024/03/30 06:56:07;;;;;;;;;;;6.20;99.90;;;;;;5121371;27;20412;-74
2024/03/30 06:58:33;;;;;;;;;;;6.30;99.90;;;;;;5108852;27;20134;-74
2024/03/30 07:00:58;;;;;;;;;;;6.30;99.90;;;;;;5107690;27;19997;-75
2024/03/30 07:03:24;;;;;;;;;;;6.60;99.90;;;;;;5109782;27;19989;-75
2024/03/30 07:05:49;;;;;;;;;;;6.60;99.90;;;;;;5108957;27;20391;-75
2024/03/30 07:08:15;;;;;;;;;;;6.50;99.90;;;;;;5108086;27;20042;-75
2024/03/30 07:10:40;;;;;;;;;;;6.50;99.90;;;;;;5100326;28;20363;-75
2024/03/30 07:13:06;;;;;;;;;;;7.00;99.90;;;;;;5105023;28;20094;-74
2024/03/30 07:15:31;;;;;;;;;;;7.00;99.90;;;;;;5109265;27;19992;-75
2024/03/30 07:17:58;;;;;;;;;;;7.30;99.90;;;;;;5088055;28;19996;-75
2024/03/30 07:20:23;;;;;;;;;;;7.50;99.90;;;;;;5105116;27;20009;-74
2024/03/30 07:22:49;;;;;;;;;;;7.60;99.90;;;;;;5090319;27;19997;-75
2024/03/30 07:25:14;;;;;;;;;;;8.20;99.90;;;;;;5109139;27;20674;-75
2024/03/30 07:27:40;;;;;;;;;;;7.90;99.90;;;;;;5103001;28;19992;-75
2024/03/30 07:30:07;;;;;;;;;;;8.40;99.90;;;;;;5102447;27;19995;-75
2024/03/30 07:32:34;;;;;;;;;;;8.60;99.90;;;;;;5099866;27;20057;-75
2024/03/30 07:35:00;;;;;;;;;;;8.30;99.90;;;;;;5103694;27;20779;-75
2024/03/30 07:37:25;;;;;;;;;;;9.50;99.90;;;;;;5106208;27;20088;-75
2024/03/30 07:39:51;;;;;;;;;;;9.70;99.90;;;;;;5107754;27;20004;-74
2024/03/30 07:42:17;;;;;;;;;;;8.90;99.90;;;;;;5103860;28;20000;-74
2024/03/30 07:44:42;;;;;;;;;;;8.90;99.90;;;;;;5086639;28;20031;-73
2024/03/30 07:47:08;;;;;;;;;;;9.50;99.90;;;;;;5107983;27;20934;-75
2024/03/30 07:49:33;;;;;;;;;;;9.20;99.90;;;;;;5104761;28;19992;-76
2024/03/30 07:51:59;;;;;;;;;;;9.30;99.90;;;;;;5096363;28;20773;-74
2024/03/30 07:54:25;;;;;;;;;;;8.90;99.90;;;;;;5104557;27;20000;-76
2024/03/30 07:56:54;;;;;;;;;;;9.20;99.90;;;;;;5104410;28;19989;-76
2024/03/30 07:59:20;;;;;;;;;;;9.70;99.90;;;;;;5103692;28;20616;-75
2024/03/30 08:01:46;;;;;;;;;;;9.40;99.90;;;;;;5089082;28;19993;-76
2024/03/30 08:04:11;;;;;;;;;;;9.10;99.90;;;;;;5089214;28;20008;-75
2024/03/30 08:06:37;;;;;;;;;;;9.40;99.90;;;;;;5092584;28;20027;-74
2024/03/30 08:09:02;;;;;;;;;;;8.90;99.90;;;;;;5099535;27;19993;-74
2024/03/30 08:11:28;;;;;;;;;;;9.20;99.90;;;;;;5085261;28;19989;-76
2024/03/30 08:13:53;;;;;;;;;;;9.80;99.50;;;;;;5087292;27;20084;-75
2024/03/30 08:16:19;;;;;;;;;;;9.70;99.20;;;;;;5100637;27;19993;-75
2024/03/30 08:18:44;;;;;;;;;;;9.80;99.90;;;;;;5101011;27;19988;-75
2024/03/30 08:21:10;;;;;;;;;;;10.80;97.40;;;;;;5077023;28;19997;-75
2024/03/30 08:23:36;;;;;;;;;;;10.30;96.80;;;;;;5092549;27;20042;-75
2024/03/30 08:26:01;;;;;;;;;;;10.20;97.70;;;;;;5090399;27;19989;-75
2024/03/30 08:28:27;;;;;;;;;;;10.20;97.80;;;;;;5094606;27;20511;-75
2024/03/30 08:30:52;;;;;;;;;;;10.00;98.00;;;;;;5089496;27;20463;-74
2024/03/30 08:33:18;;;;;;;;;;;10.00;97.90;;;;;;5103396;27;19988;-74
2024/03/30 08:35:53;;;;;;;;;;;10.70;96.70;;;;;;5104765;27;20020;-75
2024/03/30 08:38:19;;;;;;;;;;;11.40;95.00;;;;;;5099144;28;19992;-74
2024/03/30 08:40:44;;;;;;;;;;;11.20;94.80;;;;;;5099811;27;20355;-76
2024/03/30 08:43:10;;;;;;;;;;;12.00;94.00;;;;;;5101362;28;19992;-76
2024/03/30 08:45:35;;;;;;;;;;;12.10;92.90;;;;;;5104370;28;20447;-75
2024/03/30 08:48:01;;;;;;;;;;;12.40;92.50;;;;;;5103840;28;19989;-75
2024/03/30 08:50:27;;;;;;;;;;;13.20;90.90;;;;;;5103999;28;19989;-75
2024/03/30 08:52:52;;;;;;;;;;;13.10;90.90;;;;;;5103299;28;20092;-74
2024/03/30 08:55:18;;;;;;;;;;;14.60;88.00;;;;;;5103518;28;19988;-75
2024/03/30 08:57:44;;;;;;;;;;;15.50;83.80;;;;;;5103685;28;20041;-74
2024/03/30 09:00:09;;;;;;;;;;;16.00;78.10;;;;;;5103388;28;20004;-75
2024/03/30 09:02:37;;;;;;;;;;;16.60;79.30;;;;;;5103272;28;20749;-75
2024/03/30 09:05:03;;;;;;;;;;;17.30;71.70;;;;;;5100546;28;20410;-75
2024/03/30 09:07:29;;;;;;;;;;;19.20;71.80;;;;;;5099422;28;20033;-75
2024/03/30 09:09:55;;;;;;;;;;;19.60;65.50;;;;;;5102508;28;20452;-75
2024/03/30 09:12:20;;;;;;;;;;;19.40;64.20;;;;;;5103529;28;19995;-74
2024/03/30 09:14:46;;;;;;;;;;;20.10;60.70;;;;;;5104207;27;20024;-74
2024/03/30 09:17:12;;;;;;;;;;;20.80;59.90;;;;;;5103343;28;19995;-75
2024/03/30 09:19:38;;;;;;;;;;;21.30;58.80;;;;;;5103247;28;20725;-75
2024/03/30 09:22:04;;;;;;;;;;;20.30;57.60;;;;;;5102808;28;20024;-74
2024/03/30 09:24:29;;;;;;;;;;;20.70;58.80;;;;;;5102580;28;20095;-75
2024/03/30 09:26:56;;;;;;;;;;;21.60;55.90;;;;;;5100341;28;20035;-75
2024/03/30 09:29:22;;;;;;;;;;;22.10;54.60;;;;;;5102624;28;19988;-74
2024/03/30 09:31:48;;;;;;;;;;;21.20;54.60;;;;;;5101971;28;19990;-74
2024/03/30 09:34:14;;;;;;;;;;;21.20;53.20;;;;;;5103003;28;20435;-75
2024/03/30 09:36:39;;;;;;;;;;;22.20;49.40;;;;;;5103379;28;20391;-74
2024/03/30 09:39:05;;;;;;;;;;;22.60;48.30;;;;;;5103043;28;20088;-75
2024/03/30 09:41:35;;;;;;;;;;;22.10;47.40;;;;;;5103092;28;19992;-74
2024/03/30 09:44:04;;;;;;;;;;;21.70;49.50;;;;;;5083937;28;20383;-75
2024/03/30 09:46:30;;;;;;;;;;;22.70;47.80;;;;;;5100575;28;19992;-74
2024/03/30 09:48:56;;;;;;;;;;;21.60;47.80;;;;;;5102784;28;20039;-74
2024/03/30 09:51:22;;;;;;;;;;;22.40;46.90;;;;;;5102235;28;20414;-74
2024/03/30 09:53:48;;;;;;;;;;;23.60;45.40;;;;;;5102487;28;19988;-74
2024/03/30 09:56:14;;;;;;;;;;;21.90;45.20;;;;;;5102578;28;19989;-74
2024/03/30 09:58:40;;;;;;;;;;;20.90;45.40;;;;;;5102547;28;20023;-74
2024/03/30 10:01:06;;;;;;;;;;;19.60;47.90;;;;;;5099984;28;19992;-74
2024/03/30 10:03:32;;;;;;;;;;;20.20;47.30;;;;;;5099959;28;20011;-74
2024/03/30 10:05:57;;;;;;;;;;;18.90;49.50;;;;;;5106361;27;20065;-74
2024/03/30 10:08:26;;;;;;;;;;;20.00;48.20;;;;;;5102468;28;20110;-74
2024/03/30 10:10:54;;;;;;;;;;;20.00;50.70;;;;;;5102042;28;20010;-74
2024/03/30 10:13:32;;;;;;;;;;;19.70;52.00;;;;;;5104313;27;20047;-75
2024/03/30 10:15:58;;;;;;;;;;;19.00;52.20;;;;;;5110077;27;19984;-74
2024/03/30 10:18:24;;;;;;;;;;;18.80;54.90;;;;;;5102079;28;19989;-74
2024/03/30 10:20:50;;;;;;;;;;;16.80;56.10;;;;;;5102965;28;20036;-75
2024/03/30 10:23:16;;;;;;;;;;;15.50;59.60;;;;;;5115583;27;20371;-74
2024/03/30 10:25:52;;;;;;;;;;;16.70;60.20;;;;;;5106680;28;19993;-74
2024/03/30 10:28:18;;;;;;;;;;;16.10;56.60;;;;;;5108782;28;20028;-74
2024/03/30 10:30:43;;;;;;;;;;;15.70;59.50;;;;;;5106811;27;20514;-74
2024/03/30 10:33:12;;;;;;;;;;;16.50;61.60;;;;;;5107800;27;20096;-75
2024/03/30 10:35:38;;;;;;;;;;;17.50;59.10;;;;;;5108129;27;20113;-75
2024/03/30 10:38:05;;;;;;;;;;;17.20;59.10;;;;;;5108431;28;20463;-73
2024/03/30 10:40:31;;;;;;;;;;;16.90;58.70;;;;;;5107742;28;20017;-74
2024/03/30 10:42:57;;;;;;;;;;;16.50;57.90;;;;;;5108010;27;20001;-76
2024/03/30 10:45:25;;;;;;;;;;;16.60;58.00;;;;;;5095890;28;20118;-73
2024/03/30 10:47:54;;;;;;;;;;;16.20;58.70;;;;;;5107539;27;19989;-74
2024/03/30 10:50:19;;;;;;;;;;;15.90;59.40;;;;;;5110392;27;19997;-74
2024/03/30 10:52:45;;;;;;;;;;;15.90;59.40;;;;;;5110091;27;20023;-74
2024/03/30 10:55:11;;;;;;;;;;;16.50;59.80;;;;;;5108300;27;20046;-74
2024/03/30 10:57:37;;;;;;;;;;;16.30;58.20;;;;;;5107384;27;20096;-74
2024/03/30 11:00:10;;;;;;;;;;;16.30;60.00;;;;;;5108754;27;20009;-74
2024/03/30 11:02:37;;;;;;;;;;;15.90;59.30;;;;;;5105029;27;20040;-74
2024/03/30 11:05:03;;;;;;;;;;;16.30;62.20;;;;;;5105412;27;20795;-74
2024/03/30 11:07:29;;;;;;;;;;;16.40;61.80;;;;;;5102238;27;20631;-74
2024/03/30 11:09:55;;;;;;;;;;;16.10;61.00;;;;;;5108638;27;20457;-74
2024/03/30 11:12:22;;;;;;;;;;;16.00;64.90;;;;;;5106578;27;20000;-74
2024/03/30 11:14:48;;;;;;;;;;;15.70;62.50;;;;;;5102672;27;20175;-73
2024/03/30 11:17:18;;;;;;;;;;;16.20;63.20;;;;;;5109184;27;20109;-75
2024/03/30 11:20:02;;;;;;;;;;;16.60;65.30;;;;;;5108767;27;20005;-74
2024/03/30 11:22:46;;;;;;;;;;;17.60;67.10;;;;;;5101578;27;19997;-75
2024/03/30 11:25:16;;;;;;;;;;;17.90;63.10;;;;;;5103553;27;19996;-73
2024/03/30 11:28:04;;;;;;;;;;;17.50;68.30;;;;;;5095034;27;19989;-73
2024/03/30 11:30:31;;;;;;;;;;;17.10;64.30;;;;;;5110236;27;20487;-74
2024/03/30 11:33:05;;;;;;;;;;;16.90;65.70;;;;;;5086882;27;19996;-73
2024/03/30 11:35:33;;;;;;;;;;;16.90;66.00;;;;;;5087581;27;20124;-74
2024/03/30 11:38:02;;;;;;;;;;;16.70;65.90;;;;;;5094029;27;20646;-74
2024/03/30 11:40:30;;;;;;;;;;;16.70;66.20;;;;;;5102722;27;20001;-74
2024/03/30 11:43:05;;;;;;;;;;;17.20;66.40;;;;;;5099572;27;20627;-73
2024/03/30 11:45:32;;;;;;;;;;;17.20;64.90;;;;;;5108205;27;19996;-74
2024/03/30 11:48:00;;;;;;;;;;;16.90;64.70;;;;;;5121362;27;20378;-75
2024/03/30 11:50:26;;;;;;;;;;;17.20;65.80;;;;;;5093407;27;19993;-75
2024/03/30 11:52:51;;;;;;;;;;;17.20;67.50;;;;;;5104204;27;19988;-74
2024/03/30 11:55:26;;;;;;;;;;;17.50;69.00;;;;;;5108488;27;20092;-73
2024/03/30 11:57:52;;;;;;;;;;;17.20;67.10;;;;;;5107608;27;19998;-73
2024/03/30 12:00:20;;;;;;;;;;;17.10;68.50;;;;;;5103794;28;20055;-75
2024/03/30 12:02:49;;;;;;;;;;;16.50;66.70;;;;;;5106912;27;19998;-75
2024/03/30 12:05:23;;;;;;;;;;;16.40;66.20;;;;;;5104745;27;19992;-76
2024/03/30 12:07:52;;;;;;;;;;;16.50;67.20;;;;;;5102302;27;20001;-76
2024/03/30 12:10:18;;;;;;;;;;;16.10;65.40;;;;;;5107482;27;20042;-75
2024/03/30 12:12:43;;;;;;;;;;;15.90;66.20;;;;;;5109082;27;20115;-75
2024/03/30 12:15:13;;;;;;;;;;;15.90;71.20;;;;;;5113167;27;20047;-75
2024/03/30 12:17:39;;;;;;;;;;;16.10;70.20;;;;;;5100304;27;19989;-76
2024/03/30 12:20:06;;;;;;;;;;;16.10;67.30;;;;;;5102995;27;20005;-76
2024/03/30 12:22:31;;;;;;;;;;;16.00;70.80;;;;;;5108105;27;19996;-74
2024/03/30 12:24:57;;;;;;;;;;;16.30;71.90;;;;;;5108914;27;19989;-75
2024/03/30 12:27:24;;;;;;;;;;;16.30;72.50;;;;;;5107211;27;19992;-75
2024/03/30 12:29:49;;;;;;;;;;;16.20;69.40;;;;;;5099512;27;20032;-75
2024/03/30 12:32:15;;;;;;;;;;;16.10;67.90;;;;;;5103909;27;20119;-75
2024/03/30 12:34:42;;;;;;;;;;;15.80;67.50;;;;;;5107574;27;19996;-75
2024/03/30 12:37:07;;;;;;;;;;;15.50;69.20;;;;;;5103336;28;20024;-75
2024/03/30 12:39:33;;;;;;;;;;;15.60;71.70;;;;;;5103861;27;20031;-75
2024/03/30 12:41:58;;;;;;;;;;;15.70;72.40;;;;;;5103257;28;20004;-75
2024/03/30 12:44:25;;;;;;;;;;;15.80;74.70;;;;;;5103901;27;19989;-75
2024/03/30 12:46:51;;;;;;;;;;;15.50;72.00;;;;;;5103809;28;20045;-76
2024/03/30 12:49:16;;;;;;;;;;;15.80;72.40;;;;;;5101113;27;20739;-75
2024/03/30 12:51:42;;;;;;;;;;;16.00;75.00;;;;;;5106424;27;20494;-76
2024/03/30 12:54:09;;;;;;;;;;;16.00;74.50;;;;;;5105723;27;20443;-75
2024/03/30 12:56:34;;;;;;;;;;;16.40;76.00;;;;;;5103889;27;20490;-77
2024/03/30 12:59:00;;;;;;;;;;;16.10;72.40;;;;;;5105718;27;20102;-76
2024/03/30 13:01:26;;;;;;;;;;;15.90;72.40;;;;;;5103847;28;20095;-76
2024/03/30 13:03:52;;;;;;;;;;;15.40;71.50;;;;;;5102059;28;20039;-75
2024/03/30 13:06:18;;;;;;;;;;;15.40;72.40;;;;;;5096600;28;20023;-76
2024/03/30 13:08:47;;;;;;;;;;;15.50;77.50;;;;;;5106316;27;20475;-75
2024/03/30 13:11:13;;;;;;;;;;;15.40;74.20;;;;;;5103299;28;19993;-75
2024/03/30 13:13:39;;;;;;;;;;;15.40;75.10;;;;;;5102332;27;19988;-76
2024/03/30 13:16:07;;;;;;;;;;;15.50;74.30;;;;;;5088266;28;20668;-75
2024/03/30 13:18:33;;;;;;;;;;;15.40;73.50;;;;;;5103104;28;19989;-75
2024/03/30 13:21:06;;;;;;;;;;;15.40;74.80;;;;;;5102513;28;20576;-76
2024/03/30 13:23:32;;;;;;;;;;;15.50;74.00;;;;;;5102797;28;20490;-75
2024/03/30 13:26:00;;;;;;;;;;;15.60;77.90;;;;;;5100685;28;19993;-75
2024/03/30 13:28:26;;;;;;;;;;;15.70;78.70;;;;;;5104908;27;20086;-76
2024/03/30 13:30:51;;;;;;;;;;;15.50;75.50;;;;;;5106432;27;20001;-76
2024/03/30 13:33:18;;;;;;;;;;;15.20;75.20;;;;;;5100143;27;20673;-75
2024/03/30 13:35:45;;;;;;;;;;;15.00;76.10;;;;;;5101560;27;19993;-76
2024/03/30 13:38:10;;;;;;;;;;;15.10;76.70;;;;;;5102799;28;20526;-75
2024/03/30 13:40:36;;;;;;;;;;;15.20;76.50;;;;;;5103071;28;20008;-77
2024/03/30 13:43:01;;;;;;;;;;;15.20;75.90;;;;;;5102338;28;19993;-75
2024/03/30 13:45:29;;;;;;;;;;;15.30;75.60;;;;;;5102894;28;20499;-76
2024/03/30 13:47:54;;;;;;;;;;;15.40;75.70;;;;;;5102826;28;20096;-76
2024/03/30 13:50:20;;;;;;;;;;;15.40;73.30;;;;;;5100622;28;20111;-76
2024/03/30 13:52:45;;;;;;;;;;;15.40;72.20;;;;;;5103208;27;20108;-77
2024/03/30 13:55:11;;;;;;;;;;;15.40;74.90;;;;;;5103360;27;19993;-77
2024/03/30 13:57:36;;;;;;;;;;;15.50;74.60;;;;;;5102841;27;20033;-75
2024/03/30 14:00:03;;;;;;;;;;;15.60;72.50;;;;;;5106263;27;20009;-76
2024/03/30 14:02:28;;;;;;;;;;;15.70;70.60;;;;;;5102241;28;19993;-76
2024/03/30 14:04:54;;;;;;;;;;;15.80;69.60;;;;;;5104979;28;20342;-77
2024/03/30 14:07:20;;;;;;;;;;;16.10;70.40;;;;;;5101566;28;20611;-76
2024/03/30 14:09:45;;;;;;;;;;;16.40;70.40;;;;;;5102312;27;19993;-76
2024/03/30 14:12:12;;;;;;;;;;;16.50;71.80;;;;;;5101896;28;19992;-75
2024/03/30 14:14:38;;;;;;;;;;;16.80;72.70;;;;;;5081742;28;20467;-75
2024/03/30 14:17:07;;;;;;;;;;;16.90;69.60;;;;;;5101500;27;19989;-75
2024/03/30 14:19:33;;;;;;;;;;;16.70;70.70;;;;;;5102246;28;20030;-75
2024/03/30 14:21:58;;;;;;;;;;;16.60;69.20;;;;;;5100710;28;19992;-74